Forside
METAR-TAF:

METAR-TAF

Lufthavne :

Trollhättan-Vänersborg, Sverige

Breddekreds: 58-19N, længdekreds: 012-21E, højde: 41 m

Aktuelle vejr

Denne rapport blev lavet for 18 minutter siden, kl. 01:50 UTC
Vind 4 kt fra nordnordvest
Temperatur 14°C
Fugtighed 94%
Tryk 1008 hPa
Sigt 10 km eller mere

METAR: ESGT 220150Z AUTO 33004KT 9999 FEW041/// OVC049/// 14/13 Q1008

Tid: 04:08 (02:08 UTC)

Vejrudsigter

Denne rapport blev lavet for 14 timer og 38 minutter siden, kl. 11:30 UTC
Foreløbig gælder fra 21 på 12 UTC til 21 på 14 UTC
Vind 8 kt fra sydvest
Sigt 10 km eller mere
Spredte skyer i en højde af 3000 ft
Sandsynlighed 40%
fra 21 på 12 UTC til 21 på 14 UTC
Brudte skyer i en højde af 5000 ft, Cumulonimbus.
regnbyger

TAF: ESGT 211130Z 2112/2114 22008KT 9999 SCT030 PROB40 2112/2114 SHRA BKN050CB

Vejrobservationer og prognoser fra mere end 4000 lufthavne (METAR og TAF).

De gule og røde prikker repræsenterer de meteorologiske stationer.

Flyt musen over at se navnet på stationen.

Så klik over at se vejr observationer og prognoser.

At skifte det kort: Klik på de grønne knapper med et sort kors for at zoome ind; på den grønne knap med en bindestreg for at zoome ud; eller på de grønne pile for tilstødende kort.


METAR-TAF: